Time;durP1;ratioP1;P1;durP2;ratioP2;P2;SDS_P1;SDS_P2;PMS_P1;PMS_P2;Temp;Humidity;BMP_temperature;BMP_pressure;BME280_temperature;BME280_humidity;BME280_pressure;Samples;Min_cycle;Max_cycle;Signal;HPM_P1;HPM_P2
2021/12/28 00:00:28;;;;;;;48.90;4.88;;;;;;;;;;4861195;29;20063;-70
2021/12/28 00:02:59;;;;;;;44.40;3.55;;;;;;;;;;4900433;29;20057;-67
2021/12/28 00:05:30;;;;;;;38.00;3.85;;;;;;;;;;4900249;29;20056;-66
2021/12/28 00:08:01;;;;;;;64.05;4.38;;;;;;;;;;4921232;29;20055;-66
2021/12/28 00:10:32;;;;;;;50.78;3.88;;;;;;;;;;4871947;29;20054;-66
2021/12/28 00:13:02;;;;;;;51.17;4.40;;;;;;;;;;4855189;29;20042;-66
2021/12/28 00:15:46;;;;;;;52.63;5.32;;;;;;;;;;4855622;29;20065;-65
2021/12/28 00:18:17;;;;;;;62.03;4.40;;;;;;;;;;4827413;29;20069;-67
2021/12/28 00:20:58;;;;;;;44.50;3.42;;;;;;;;;;4806819;29;20096;-65
2021/12/28 00:23:37;;;;;;;46.15;4.18;;;;;;;;;;4810099;29;20428;-66
2021/12/28 00:26:11;;;;;;;48.97;3.80;;;;;;;;;;4840280;29;20045;-66
2021/12/28 00:28:45;;;;;;;60.30;4.13;;;;;;;;;;4843752;29;20065;-65
2021/12/28 00:31:17;;;;;;;41.17;4.07;;;;;;;;;;4841135;29;20061;-66
2021/12/28 00:33:47;;;;;;;47.72;4.07;;;;;;;;;;4891454;29;20056;-66
2021/12/28 00:36:18;;;;;;;44.45;3.05;;;;;;;;;;4895324;29;20065;-67
2021/12/28 00:38:48;;;;;;;42.38;4.03;;;;;;;;;;4916334;29;20474;-67
2021/12/28 00:41:20;;;;;;;31.27;3.40;;;;;;;;;;4928888;29;20063;-66
2021/12/28 00:43:52;;;;;;;35.45;2.45;;;;;;;;;;4915086;29;20056;-66
2021/12/28 00:46:22;;;;;;;33.17;3.58;;;;;;;;;;4944582;29;20063;-65
2021/12/28 00:48:54;;;;;;;25.60;3.50;;;;;;;;;;4923862;28;20474;-74
2021/12/28 00:51:24;;;;;;;26.50;2.90;;;;;;;;;;4914927;29;20064;-66
2021/12/28 00:53:55;;;;;;;10.65;2.20;;;;;;;;;;4914599;29;20412;-67
2021/12/28 00:56:25;;;;;;;11.95;1.85;;;;;;;;;;4945501;29;20047;-64
2021/12/28 00:58:56;;;;;;;33.58;3.13;;;;;;;;;;4969862;28;20046;-64
2021/12/28 01:01:26;;;;;;;28.00;2.75;;;;;;;;;;4940629;29;20055;-66
2021/12/28 01:03:57;;;;;;;27.75;4.10;;;;;;;;;;4948431;29;20452;-65
2021/12/28 01:06:28;;;;;;;26.77;2.85;;;;;;;;;;4948574;29;20040;-66
2021/12/28 01:08:58;;;;;;;30.65;3.20;;;;;;;;;;4951569;29;20051;-65
2021/12/28 01:11:30;;;;;;;24.80;2.90;;;;;;;;;;4951842;29;20047;-65
2021/12/28 01:14:01;;;;;;;23.08;3.03;;;;;;;;;;4951925;29;20051;-65
2021/12/28 01:16:31;;;;;;;21.58;2.55;;;;;;;;;;4932459;29;20052;-64
2021/12/28 01:19:02;;;;;;;29.48;3.50;;;;;;;;;;4911719;29;20052;-65
2021/12/28 01:21:33;;;;;;;27.83;2.53;;;;;;;;;;4929512;29;20060;-64
2021/12/28 01:24:04;;;;;;;31.13;3.25;;;;;;;;;;4941674;28;20492;-66
2021/12/28 01:26:35;;;;;;;30.92;3.55;;;;;;;;;;4933128;29;20055;-65
2021/12/28 01:29:05;;;;;;;28.60;3.03;;;;;;;;;;4939536;29;20064;-67
2021/12/28 01:31:37;;;;;;;28.75;3.42;;;;;;;;;;4917368;29;20408;-64
2021/12/28 01:34:09;;;;;;;31.20;3.53;;;;;;;;;;4932878;29;20059;-66
2021/12/28 01:36:39;;;;;;;20.38;2.53;;;;;;;;;;4930833;29;20059;-65
2021/12/28 01:39:11;;;;;;;22.13;3.13;;;;;;;;;;4913818;29;20067;-65
2021/12/28 01:41:42;;;;;;;16.83;2.97;;;;;;;;;;4932215;29;20432;-66
2021/12/28 01:44:13;;;;;;;14.85;2.70;;;;;;;;;;4951953;29;20419;-67
2021/12/28 01:46:43;;;;;;;19.98;3.05;;;;;;;;;;4948327;28;20047;-65
2021/12/28 01:49:14;;;;;;;16.13;2.55;;;;;;;;;;4961434;28;20050;-65
2021/12/28 01:51:45;;;;;;;21.00;2.92;;;;;;;;;;4987522;28;20046;-65
2021/12/28 01:54:16;;;;;;;18.92;2.17;;;;;;;;;;4951666;28;20051;-65
2021/12/28 01:56:48;;;;;;;31.42;3.42;;;;;;;;;;4952083;29;20066;-64
2021/12/28 01:59:21;;;;;;;19.85;2.65;;;;;;;;;;4936108;29;20055;-66
2021/12/28 02:01:52;;;;;;;25.38;2.55;;;;;;;;;;4941122;29;20055;-66
2021/12/28 02:04:26;;;;;;;24.05;2.72;;;;;;;;;;4951482;29;20055;-66
2021/12/28 02:06:58;;;;;;;31.50;3.00;;;;;;;;;;4913162;29;20048;-65
2021/12/28 02:09:28;;;;;;;18.23;2.92;;;;;;;;;;4893728;29;20650;-66
2021/12/28 02:11:58;;;;;;;19.88;2.80;;;;;;;;;;4894712;29;20419;-65
2021/12/28 02:14:29;;;;;;;17.40;2.67;;;;;;;;;;4905413;29;20052;-65
2021/12/28 02:16:59;;;;;;;17.17;2.50;;;;;;;;;;4891822;29;20052;-72
2021/12/28 02:19:29;;;;;;;17.45;2.90;;;;;;;;;;4886416;29;20063;-65
2021/12/28 02:22:00;;;;;;;23.55;2.85;;;;;;;;;;4886915;29;20053;-65
2021/12/28 02:24:30;;;;;;;17.77;2.55;;;;;;;;;;4873620;29;20526;-66
2021/12/28 02:27:01;;;;;;;16.75;2.17;;;;;;;;;;4872475;29;20049;-71
2021/12/28 02:29:31;;;;;;;17.23;2.50;;;;;;;;;;4875473;29;20565;-69
2021/12/28 02:32:01;;;;;;;22.38;2.17;;;;;;;;;;4883928;29;20075;-65
2021/12/28 02:34:32;;;;;;;15.88;1.90;;;;;;;;;;4875251;29;20547;-65
2021/12/28 02:37:02;;;;;;;16.58;2.17;;;;;;;;;;4912473;29;20056;-65
2021/12/28 02:39:32;;;;;;;12.52;2.38;;;;;;;;;;4897052;29;20071;-65
2021/12/28 02:42:03;;;;;;;19.15;2.30;;;;;;;;;;4907045;29;20092;-65
2021/12/28 02:44:33;;;;;;;13.85;2.22;;;;;;;;;;4930839;28;20082;-65
2021/12/28 02:47:04;;;;;;;20.20;2.20;;;;;;;;;;4950830;28;20055;-66
2021/12/28 02:49:37;;;;;;;19.33;1.98;;;;;;;;;;4935136;29;20066;-65
2021/12/28 02:52:09;;;;;;;20.33;3.05;;;;;;;;;;4975715;28;20046;-66
2021/12/28 02:54:41;;;;;;;25.20;2.50;;;;;;;;;;4954134;28;20539;-67
2021/12/28 02:57:12;;;;;;;20.73;2.92;;;;;;;;;;4980296;28;20062;-66
2021/12/28 02:59:49;;;;;;;19.50;2.70;;;;;;;;;;5009706;28;20053;-65
2021/12/28 03:02:20;;;;;;;20.85;2.63;;;;;;;;;;5028654;28;20045;-66
2021/12/28 03:04:51;;;;;;;18.05;2.42;;;;;;;;;;4989011;28;20062;-65
2021/12/28 03:07:22;;;;;;;18.48;3.05;;;;;;;;;;4977991;28;20582;-65
2021/12/28 03:09:53;;;;;;;15.88;2.40;;;;;;;;;;4939365;29;20045;-66
2021/12/28 03:12:23;;;;;;;25.70;2.58;;;;;;;;;;4931591;29;20063;-66
2021/12/28 03:14:53;;;;;;;19.42;2.40;;;;;;;;;;4915931;29;20062;-65
2021/12/28 03:17:24;;;;;;;13.80;2.20;;;;;;;;;;4931560;29;20075;-66
2021/12/28 03:19:54;;;;;;;18.73;2.08;;;;;;;;;;4912311;29;20059;-66
2021/12/28 03:22:24;;;;;;;12.88;2.83;;;;;;;;;;4912368;29;20064;-65
2021/12/28 03:24:55;;;;;;;11.43;2.00;;;;;;;;;;4912541;29;20060;-66
2021/12/28 03:27:25;;;;;;;20.08;2.40;;;;;;;;;;4912338;29;20060;-65
2021/12/28 03:29:55;;;;;;;18.42;2.53;;;;;;;;;;4912401;29;20168;-66
2021/12/28 03:32:26;;;;;;;15.32;2.70;;;;;;;;;;4893330;29;20052;-65
2021/12/28 03:34:57;;;;;;;19.42;3.00;;;;;;;;;;4862633;29;20060;-68
2021/12/28 03:37:27;;;;;;;22.60;2.97;;;;;;;;;;4893275;29;20056;-65
2021/12/28 03:39:59;;;;;;;18.25;2.65;;;;;;;;;;4883980;29;20048;-66
2021/12/28 03:42:29;;;;;;;16.05;2.33;;;;;;;;;;4902722;29;20063;-65
2021/12/28 03:45:00;;;;;;;23.40;2.80;;;;;;;;;;4912142;29;20064;-66
2021/12/28 03:47:30;;;;;;;19.23;2.47;;;;;;;;;;4940449;29;20055;-65
2021/12/28 03:50:04;;;;;;;15.95;2.92;;;;;;;;;;4950788;29;20546;-67
2021/12/28 03:52:35;;;;;;;13.85;3.00;;;;;;;;;;4950176;29;20051;-65
2021/12/28 03:55:07;;;;;;;14.45;2.95;;;;;;;;;;4950170;29;20051;-65
2021/12/28 03:57:39;;;;;;;12.45;2.60;;;;;;;;;;4960456;28;20411;-65
2021/12/28 04:00:11;;;;;;;9.93;2.20;;;;;;;;;;4969451;28;20077;-66
2021/12/28 04:02:42;;;;;;;10.88;2.30;;;;;;;;;;4969619;28;20165;-66
2021/12/28 04:05:14;;;;;;;15.65;2.63;;;;;;;;;;4973294;28;20059;-67
2021/12/28 04:07:46;;;;;;;14.38;2.70;;;;;;;;;;4973338;28;20065;-65
2021/12/28 04:10:18;;;;;;;9.55;2.42;;;;;;;;;;4973453;28;20179;-65
2021/12/28 04:12:49;;;;;;;14.70;2.85;;;;;;;;;;4973321;28;20062;-66
2021/12/28 04:15:20;;;;;;;17.08;3.45;;;;;;;;;;4973403;28;20423;-66
2021/12/28 04:17:50;;;;;;;14.88;2.90;;;;;;;;;;4992310;28;20057;-66
2021/12/28 04:20:23;;;;;;;17.92;4.07;;;;;;;;;;4991999;28;20388;-65
2021/12/28 04:22:53;;;;;;;21.42;4.53;;;;;;;;;;4992785;28;20054;-65
2021/12/28 04:25:24;;;;;;;16.27;4.40;;;;;;;;;;5016025;28;20050;-66
2021/12/28 04:27:54;;;;;;;18.02;3.30;;;;;;;;;;4992361;28;20063;-66
2021/12/28 04:30:24;;;;;;;21.05;3.60;;;;;;;;;;4992429;28;20051;-65
2021/12/28 04:32:55;;;;;;;21.70;3.72;;;;;;;;;;4991869;28;20058;-66
2021/12/28 04:35:26;;;;;;;16.90;3.88;;;;;;;;;;5008331;28;20054;-66
2021/12/28 04:37:56;;;;;;;19.35;4.30;;;;;;;;;;4991970;28;20057;-65
2021/12/28 04:40:27;;;;;;;21.50;4.97;;;;;;;;;;4978872;28;20056;-66
2021/12/28 04:42:58;;;;;;;19.80;4.15;;;;;;;;;;5011429;28;20178;-65
2021/12/28 04:45:29;;;;;;;19.13;3.85;;;;;;;;;;5011765;28;20190;-67
2021/12/28 04:47:59;;;;;;;21.02;4.03;;;;;;;;;;5011499;28;20776;-65
2021/12/28 04:50:36;;;;;;;13.00;3.17;;;;;;;;;;4978840;28;20054;-66
2021/12/28 04:53:10;;;;;;;18.58;2.50;;;;;;;;;;4972228;28;20051;-65
2021/12/28 04:55:43;;;;;;;10.45;2.05;;;;;;;;;;5006259;28;20050;-66
2021/12/28 04:58:14;;;;;;;8.45;2.53;;;;;;;;;;4983696;28;20054;-66
2021/12/28 05:00:47;;;;;;;12.68;2.85;;;;;;;;;;4991401;28;20055;-66
2021/12/28 05:03:20;;;;;;;16.90;3.33;;;;;;;;;;4991831;28;20056;-65
2021/12/28 05:05:52;;;;;;;11.20;2.72;;;;;;;;;;4992175;28;20050;-65
2021/12/28 05:08:23;;;;;;;13.40;3.88;;;;;;;;;;4991906;28;20051;-65
2021/12/28 05:10:54;;;;;;;17.77;5.35;;;;;;;;;;4995529;28;20054;-65
2021/12/28 05:13:24;;;;;;;19.23;4.90;;;;;;;;;;5030557;28;20099;-69
2021/12/28 05:15:55;;;;;;;23.17;6.00;;;;;;;;;;5030750;28;20053;-65
2021/12/28 05:18:25;;;;;;;24.63;5.70;;;;;;;;;;5030874;28;20049;-70
2021/12/28 05:20:55;;;;;;;17.42;4.68;;;;;;;;;;5017850;28;20046;-66
2021/12/28 05:23:25;;;;;;;22.45;4.70;;;;;;;;;;4990786;28;20046;-67
2021/12/28 05:25:56;;;;;;;12.05;3.58;;;;;;;;;;4991302;28;20050;-67
2021/12/28 05:28:26;;;;;;;16.48;3.78;;;;;;;;;;4971423;28;20506;-67
2021/12/28 05:30:56;;;;;;;19.65;3.15;;;;;;;;;;4949959;28;20051;-67
2021/12/28 05:33:26;;;;;;;19.52;4.05;;;;;;;;;;4944258;29;20491;-66
2021/12/28 05:35:56;;;;;;;13.23;2.75;;;;;;;;;;4932879;29;20056;-66
2021/12/28 05:38:27;;;;;;;13.45;2.42;;;;;;;;;;4951916;28;20055;-67
2021/12/28 05:40:59;;;;;;;14.63;3.28;;;;;;;;;;4971563;28;20596;-67
2021/12/28 05:43:30;;;;;;;13.25;2.85;;;;;;;;;;4971341;28;20063;-69
2021/12/28 05:46:00;;;;;;;20.60;3.22;;;;;;;;;;4971387;28;20164;-66
2021/12/28 05:48:31;;;;;;;23.42;3.33;;;;;;;;;;4971070;28;20055;-66
2021/12/28 05:51:02;;;;;;;12.32;2.40;;;;;;;;;;4970689;28;20527;-67
2021/12/28 05:53:35;;;;;;;12.40;2.80;;;;;;;;;;4971342;28;20062;-66
2021/12/28 05:56:05;;;;;;;12.68;3.30;;;;;;;;;;4971143;28;20055;-67
2021/12/28 05:58:35;;;;;;;15.10;4.53;;;;;;;;;;4948574;28;20046;-66
2021/12/28 06:01:06;;;;;;;15.80;4.30;;;;;;;;;;4990320;28;20522;-68
2021/12/28 06:03:37;;;;;;;16.88;4.65;;;;;;;;;;4990006;28;20569;-67
2021/12/28 06:06:07;;;;;;;18.67;4.60;;;;;;;;;;4961071;28;20071;-66
2021/12/28 06:08:37;;;;;;;16.40;4.13;;;;;;;;;;4944600;29;20074;-67
2021/12/28 06:11:12;;;;;;;15.60;4.22;;;;;;;;;;4951805;29;20056;-67
2021/12/28 06:13:43;;;;;;;12.57;3.10;;;;;;;;;;4970714;28;20066;-67
2021/12/28 06:16:14;;;;;;;14.00;3.13;;;;;;;;;;4970945;28;20415;-70
2021/12/28 06:18:44;;;;;;;;;;;;;;;;;;4966364;28;20062;-67
2021/12/28 06:21:14;;;;;;;10.90;3.17;;;;;;;;;;4974310;28;19929;-67
2021/12/28 06:23:45;;;;;;;16.00;2.63;;;;;;;;;;4954254;28;20047;-67
2021/12/28 06:26:15;;;;;;;8.65;2.20;;;;;;;;;;4970060;28;20408;-69
2021/12/28 06:28:46;;;;;;;12.48;2.45;;;;;;;;;;4970328;28;20055;-66
2021/12/28 06:31:17;;;;;;;7.38;1.92;;;;;;;;;;4989655;28;20127;-71
2021/12/28 06:33:47;;;;;;;10.38;2.28;;;;;;;;;;4989665;28;20058;-69
2021/12/28 06:36:17;;;;;;;9.52;2.72;;;;;;;;;;4989865;28;20414;-66
2021/12/28 06:38:47;;;;;;;11.52;2.08;;;;;;;;;;4989288;28;20505;-66
2021/12/28 06:41:18;;;;;;;9.10;1.70;;;;;;;;;;4989939;28;20058;-66
2021/12/28 06:43:49;;;;;;;9.82;1.83;;;;;;;;;;4970192;28;20070;-66
2021/12/28 06:46:19;;;;;;;13.07;2.40;;;;;;;;;;4970704;28;20067;-66
2021/12/28 06:48:50;;;;;;;10.77;2.78;;;;;;;;;;4970072;28;20055;-65
2021/12/28 06:51:21;;;;;;;8.80;2.92;;;;;;;;;;4980461;28;20099;-66
2021/12/28 06:53:51;;;;;;;14.70;2.88;;;;;;;;;;4970047;28;20050;-66
2021/12/28 06:56:21;;;;;;;13.52;3.00;;;;;;;;;;4970296;28;20050;-69
2021/12/28 06:58:52;;;;;;;6.85;2.42;;;;;;;;;;4970401;28;20069;-72
2021/12/28 07:01:23;;;;;;;14.80;3.20;;;;;;;;;;4969953;28;20063;-66
2021/12/28 07:03:56;;;;;;;10.45;2.65;;;;;;;;;;4979525;28;20129;-65
2021/12/28 07:06:28;;;;;;;12.13;2.13;;;;;;;;;;4989905;28;20065;-66
2021/12/28 07:08:59;;;;;;;12.60;2.60;;;;;;;;;;4989235;28;20051;-68
2021/12/28 07:11:29;;;;;;;8.07;2.97;;;;;;;;;;5000049;28;20054;-67
2021/12/28 07:14:00;;;;;;;17.88;4.00;;;;;;;;;;4992774;28;20054;-69
2021/12/28 07:16:30;;;;;;;20.85;4.63;;;;;;;;;;5009268;28;20109;-66
2021/12/28 07:19:00;;;;;;;12.68;4.07;;;;;;;;;;4950270;29;20463;-66
2021/12/28 07:21:30;;;;;;;17.23;4.25;;;;;;;;;;4940453;29;20043;-66
2021/12/28 07:24:01;;;;;;;17.27;3.22;;;;;;;;;;4931327;29;20552;-66
2021/12/28 07:26:31;;;;;;;17.52;3.03;;;;;;;;;;4931471;29;20048;-66
2021/12/28 07:29:02;;;;;;;10.48;2.38;;;;;;;;;;4931205;29;20059;-65
2021/12/28 07:31:33;;;;;;;7.85;2.17;;;;;;;;;;4940653;29;20051;-66
2021/12/28 07:34:05;;;;;;;12.30;3.83;;;;;;;;;;4946409;29;20412;-66
2021/12/28 07:36:35;;;;;;;12.65;3.33;;;;;;;;;;4931294;29;20059;-67
2021/12/28 07:39:06;;;;;;;14.35;4.03;;;;;;;;;;4887822;29;20063;-65
2021/12/28 07:41:37;;;;;;;12.82;4.28;;;;;;;;;;4888643;29;20405;-66
2021/12/28 07:44:07;;;;;;;15.07;4.95;;;;;;;;;;4950435;29;20048;-66
2021/12/28 07:46:38;;;;;;;19.63;5.50;;;;;;;;;;4903854;29;20071;-65
2021/12/28 07:49:08;;;;;;;16.20;4.68;;;;;;;;;;4935012;29;20071;-75
2021/12/28 07:51:38;;;;;;;19.83;4.97;;;;;;;;;;4963322;28;20118;-67
2021/12/28 07:54:09;;;;;;;15.05;4.00;;;;;;;;;;4973687;28;20070;-68
2021/12/28 07:56:40;;;;;;;12.77;3.03;;;;;;;;;;4983520;28;20518;-66
2021/12/28 07:59:10;;;;;;;10.23;2.22;;;;;;;;;;4963732;28;20054;-66
2021/12/28 08:01:41;;;;;;;7.25;2.30;;;;;;;;;;4954113;29;20063;-65
2021/12/28 08:04:12;;;;;;;14.13;3.03;;;;;;;;;;4946878;28;20051;-66
2021/12/28 08:06:42;;;;;;;10.38;2.40;;;;;;;;;;4973508;28;20058;-65
2021/12/28 08:09:13;;;;;;;14.98;3.50;;;;;;;;;;4950973;28;20050;-68
2021/12/28 08:11:43;;;;;;;11.73;2.70;;;;;;;;;;4992783;28;20061;-66
2021/12/28 08:14:14;;;;;;;6.25;1.75;;;;;;;;;;4976061;28;20050;-66
2021/12/28 08:16:45;;;;;;;17.80;3.72;;;;;;;;;;4976781;28;20499;-67
2021/12/28 08:19:15;;;;;;;14.70;3.83;;;;;;;;;;4992281;28;20533;-66
2021/12/28 08:21:46;;;;;;;16.38;5.05;;;;;;;;;;4976439;28;20534;-66
2021/12/28 08:24:17;;;;;;;16.40;5.20;;;;;;;;;;5011745;28;20057;-66
2021/12/28 08:26:48;;;;;;;16.80;5.75;;;;;;;;;;5011842;28;20061;-66
2021/12/28 08:29:18;;;;;;;19.50;4.28;;;;;;;;;;4986031;28;20066;-66
2021/12/28 08:31:49;;;;;;;16.77;4.00;;;;;;;;;;4976409;28;20069;-66
2021/12/28 08:34:20;;;;;;;10.32;3.70;;;;;;;;;;4960276;28;20162;-66
2021/12/28 08:36:50;;;;;;;12.35;3.55;;;;;;;;;;4962689;28;20059;-65
2021/12/28 08:39:20;;;;;;;9.98;3.63;;;;;;;;;;4952838;28;20052;-66
2021/12/28 08:41:51;;;;;;;12.50;3.90;;;;;;;;;;4953071;29;20051;-66
2021/12/28 08:44:21;;;;;;;18.80;4.85;;;;;;;;;;4953496;29;20051;-66
2021/12/28 08:46:51;;;;;;;19.35;7.55;;;;;;;;;;4953463;29;20411;-65
2021/12/28 08:49:25;;;;;;;15.82;6.50;;;;;;;;;;4962435;28;20047;-66
2021/12/28 08:51:55;;;;;;;15.07;5.70;;;;;;;;;;4972342;28;20091;-66
2021/12/28 08:54:25;;;;;;;19.75;6.20;;;;;;;;;;4972402;28;20522;-66
2021/12/28 08:56:56;;;;;;;23.88;5.40;;;;;;;;;;4939830;28;20042;-66
2021/12/28 08:59:27;;;;;;;19.08;5.45;;;;;;;;;;4972294;28;20063;-66
2021/12/28 09:01:57;;;;;;;19.27;4.72;;;;;;;;;;4961932;28;20504;-65
2021/12/28 09:04:27;;;;;;;16.55;4.13;;;;;;;;;;4937521;29;21098;-66
2021/12/28 09:06:57;;;;;;;21.13;4.43;;;;;;;;;;4953012;29;20055;-66
2021/12/28 09:09:28;;;;;;;25.90;4.95;;;;;;;;;;4953105;29;20058;-69
2021/12/28 09:11:58;;;;;;;19.85;4.15;;;;;;;;;;4952737;28;20059;-65
2021/12/28 09:14:29;;;;;;;12.35;3.22;;;;;;;;;;4929685;28;20062;-69
2021/12/28 09:16:59;;;;;;;12.27;3.55;;;;;;;;;;4970461;28;20063;-70
2021/12/28 09:19:31;;;;;;;19.80;3.90;;;;;;;;;;4963381;28;20053;-70
2021/12/28 09:22:03;;;;;;;8.25;3.10;;;;;;;;;;4971241;28;20054;-66
2021/12/28 09:24:34;;;;;;;15.50;3.10;;;;;;;;;;4981852;28;20051;-65
2021/12/28 09:27:12;;;;;;;9.57;2.50;;;;;;;;;;4992332;28;20058;-67
2021/12/28 09:29:43;;;;;;;12.45;4.18;;;;;;;;;;4965216;28;20054;-66
2021/12/28 09:32:20;;;;;;;22.98;6.78;;;;;;;;;;4969516;28;20066;-69
2021/12/28 09:34:53;;;;;;;24.60;6.20;;;;;;;;;;4961224;28;20050;-66
2021/12/28 09:37:24;;;;;;;20.80;6.05;;;;;;;;;;4965150;28;20071;-71
2021/12/28 09:39:57;;;;;;;24.05;6.85;;;;;;;;;;4946771;28;20414;-66
2021/12/28 09:42:28;;;;;;;17.17;4.90;;;;;;;;;;4940143;29;20531;-66
2021/12/28 09:44:58;;;;;;;16.48;4.57;;;;;;;;;;4952138;29;20062;-66
2021/12/28 09:47:29;;;;;;;24.40;4.47;;;;;;;;;;4951397;29;20051;-66
2021/12/28 09:50:06;;;;;;;19.05;4.25;;;;;;;;;;4930573;29;20052;-67
2021/12/28 09:52:36;;;;;;;21.88;4.35;;;;;;;;;;4916431;29;20063;-66
2021/12/28 09:55:07;;;;;;;18.13;5.38;;;;;;;;;;4907784;29;20401;-65
2021/12/28 09:57:40;;;;;;;20.98;4.80;;;;;;;;;;4903901;29;20056;-66
2021/12/28 10:00:11;;;;;;;16.85;3.75;;;;;;;;;;4881219;29;20057;-66
2021/12/28 10:02:41;;;;;;;15.63;3.95;;;;;;;;;;4877543;29;20072;-66
2021/12/28 10:05:21;;;;;;;18.73;4.57;;;;;;;;;;4875413;29;20052;-66
2021/12/28 10:07:59;;;;;;;15.90;4.28;;;;;;;;;;4883983;29;20053;-66
2021/12/28 10:10:44;;;;;;;22.92;4.93;;;;;;;;;;4913250;29;20048;-66
2021/12/28 10:13:20;;;;;;;17.25;4.80;;;;;;;;;;4913467;29;20048;-66
2021/12/28 10:15:54;;;;;;;21.70;5.05;;;;;;;;;;4913521;29;20094;-66
2021/12/28 10:18:25;;;;;;;18.80;3.83;;;;;;;;;;4918446;29;20059;-67
2021/12/28 10:21:00;;;;;;;15.52;3.63;;;;;;;;;;4913336;29;20063;-67
2021/12/28 10:23:34;;;;;;;11.60;3.75;;;;;;;;;;4897980;29;20060;-67
2021/12/28 10:26:07;;;;;;;17.45;4.10;;;;;;;;;;4932104;29;20060;-66
2021/12/28 10:28:39;;;;;;;8.20;3.35;;;;;;;;;;4929610;29;20512;-69
2021/12/28 10:31:19;;;;;;;15.18;4.07;;;;;;;;;;4896288;29;20390;-66
2021/12/28 10:33:56;;;;;;;14.07;3.55;;;;;;;;;;4893906;29;20057;-66
2021/12/28 10:36:34;;;;;;;14.63;3.47;;;;;;;;;;4894016;29;20053;-66
2021/12/28 10:39:06;;;;;;;12.20;3.78;;;;;;;;;;4894216;29;20563;-65
2021/12/28 10:41:42;;;;;;;10.77;3.28;;;;;;;;;;4894416;29;20102;-66
2021/12/28 10:44:13;;;;;;;13.57;3.30;;;;;;;;;;4950882;29;20124;-71
2021/12/28 10:46:45;;;;;;;11.88;3.17;;;;;;;;;;4866648;29;20059;-65
2021/12/28 10:49:35;;;;;;;8.02;3.15;;;;;;;;;;4879964;29;20068;-66
2021/12/28 10:52:29;;;;;;;10.82;3.35;;;;;;;;;;4875181;29;20056;-66
2021/12/28 10:55:39;;;;;;;6.50;3.22;;;;;;;;;;4875215;29;20060;-66
2021/12/28 10:58:25;;;;;;;11.00;2.95;;;;;;;;;;4863690;29;20060;-66
2021/12/28 11:01:00;;;;;;;9.75;2.90;;;;;;;;;;4884613;29;20064;-66
2021/12/28 11:03:34;;;;;;;7.38;2.90;;;;;;;;;;4882335;29;20052;-65
2021/12/28 11:06:08;;;;;;;5.63;2.53;;;;;;;;;;4884372;29;20049;-65
2021/12/28 11:08:39;;;;;;;7.70;3.00;;;;;;;;;;4874092;29;20492;-67
2021/12/28 11:11:13;;;;;;;10.27;2.80;;;;;;;;;;4874293;29;20056;-66
2021/12/28 11:13:44;;;;;;;8.52;3.13;;;;;;;;;;4874125;29;20488;-65
2021/12/28 11:16:19;;;;;;;8.35;2.58;;;;;;;;;;4888117;29;20060;-65
2021/12/28 11:18:53;;;;;;;11.77;2.55;;;;;;;;;;4892024;29;20052;-67
2021/12/28 11:21:27;;;;;;;4.40;2.72;;;;;;;;;;4887297;29;20064;-69
2021/12/28 11:24:09;;;;;;;6.53;2.55;;;;;;;;;;4889759;29;20056;-66
2021/12/28 11:26:45;;;;;;;6.53;2.40;;;;;;;;;;4874390;29;20061;-65
2021/12/28 11:29:19;;;;;;;6.78;2.20;;;;;;;;;;4899637;28;20062;-66
2021/12/28 11:31:55;;;;;;;13.82;4.85;;;;;;;;;;4988358;28;20046;-65
2021/12/28 11:34:37;;;;;;;7.30;3.30;;;;;;;;;;4981488;28;20066;-65
2021/12/28 11:37:17;;;;;;;7.57;2.67;;;;;;;;;;4988935;28;20046;-63
2021/12/28 11:39:58;;;;;;;4.32;2.20;;;;;;;;;;4982589;28;20569;-65
2021/12/28 11:42:31;;;;;;;6.80;2.17;;;;;;;;;;4975273;28;20043;-64
2021/12/28 11:45:03;;;;;;;4.47;1.98;;;;;;;;;;4984026;28;20449;-66
2021/12/28 11:47:34;;;;;;;7.95;2.97;;;;;;;;;;4972834;28;20053;-65
2021/12/28 11:50:08;;;;;;;4.63;2.22;;;;;;;;;;4980072;28;20042;-68
2021/12/28 11:52:38;;;;;;;5.18;2.22;;;;;;;;;;4959317;28;20046;-65
2021/12/28 11:55:10;;;;;;;6.40;2.53;;;;;;;;;;5002327;28;20057;-64
2021/12/28 11:57:49;;;;;;;;;;;;;;;;;;5008365;28;20120;-64
2021/12/28 12:00:22;;;;;;;5.50;2.35;;;;;;;;;;5006962;28;20407;-70
2021/12/28 12:02:54;;;;;;;6.22;3.10;;;;;;;;;;4981789;28;20081;-64
2021/12/28 12:05:27;;;;;;;6.25;2.30;;;;;;;;;;4967320;28;20062;-65
2021/12/28 12:08:06;;;;;;;3.58;2.40;;;;;;;;;;4968961;28;20051;-64
2021/12/28 12:10:40;;;;;;;7.47;2.30;;;;;;;;;;4996142;28;20054;-64
2021/12/28 12:13:15;;;;;;;8.75;2.22;;;;;;;;;;5008293;28;20069;-66
2021/12/28 12:15:53;;;;;;;4.50;2.40;;;;;;;;;;5008047;28;20054;-67
2021/12/28 12:18:28;;;;;;;13.48;2.30;;;;;;;;;;5003505;28;20054;-65
2021/12/28 12:21:04;;;;;;;7.38;2.50;;;;;;;;;;4963377;28;20046;-67
2021/12/28 12:23:54;;;;;;;5.03;2.08;;;;;;;;;;4987724;28;20061;-65
2021/12/28 12:26:34;;;;;;;4.90;2.65;;;;;;;;;;4976142;28;20050;-68
2021/12/28 12:29:20;;;;;;;8.02;2.47;;;;;;;;;;4992134;28;20058;-65
2021/12/28 12:31:52;;;;;;;7.05;2.55;;;;;;;;;;4989100;28;20419;-66
2021/12/28 12:34:31;;;;;;;6.22;2.20;;;;;;;;;;4944038;28;20505;-65
2021/12/28 12:37:01;;;;;;;7.20;2.22;;;;;;;;;;4976107;28;20554;-63
2021/12/28 12:39:39;;;;;;;4.90;2.60;;;;;;;;;;4977501;28;20442;-66
2021/12/28 12:42:14;;;;;;;8.25;2.72;;;;;;;;;;4986146;28;20055;-66
2021/12/28 12:44:45;;;;;;;7.72;2.20;;;;;;;;;;4985734;28;20053;-66
2021/12/28 12:47:16;;;;;;;9.00;2.22;;;;;;;;;;4985266;28;20055;-64
2021/12/28 12:49:47;;;;;;;5.55;2.38;;;;;;;;;;4989586;28;20514;-66
2021/12/28 12:52:19;;;;;;;8.98;2.42;;;;;;;;;;4989220;28;20454;-65
2021/12/28 12:54:52;;;;;;;7.55;1.77;;;;;;;;;;4954138;28;20042;-65
2021/12/28 12:57:31;;;;;;;5.80;1.98;;;;;;;;;;4971229;28;20062;-64
2021/12/28 13:00:19;;;;;;;14.02;3.58;;;;;;;;;;5006848;28;20062;-65
2021/12/28 13:03:01;;;;;;;8.52;1.90;;;;;;;;;;4981893;28;20066;-66
2021/12/28 13:05:43;;;;;;;6.68;1.58;;;;;;;;;;4950200;28;20225;-70
2021/12/28 13:08:14;;;;;;;6.38;2.88;;;;;;;;;;4970242;28;20718;-65
2021/12/28 13:10:44;;;;;;;4.63;1.88;;;;;;;;;;4973031;28;20495;-66
2021/12/28 13:13:15;;;;;;;6.28;1.80;;;;;;;;;;4953904;28;20164;-66
2021/12/28 13:15:45;;;;;;;5.90;2.05;;;;;;;;;;4974059;28;20051;-67
2021/12/28 13:18:34;;;;;;;4.45;1.83;;;;;;;;;;4973142;28;20047;-65
2021/12/28 13:21:05;;;;;;;8.43;4.00;;;;;;;;;;4953041;28;20050;-64
2021/12/28 13:23:36;;;;;;;4.78;2.13;;;;;;;;;;5000037;28;20058;-65
2021/12/28 13:26:06;;;;;;;6.22;1.88;;;;;;;;;;5000275;28;20045;-65
2021/12/28 13:28:36;;;;;;;4.47;1.83;;;;;;;;;;4968244;28;20072;-64
2021/12/28 13:31:06;;;;;;;6.53;1.85;;;;;;;;;;4984249;28;20686;-66
2021/12/28 13:33:37;;;;;;;5.50;2.50;;;;;;;;;;5009937;28;20406;-67
2021/12/28 13:36:08;;;;;;;7.65;1.60;;;;;;;;;;5034309;28;20057;-66
2021/12/28 13:38:38;;;;;;;6.60;1.88;;;;;;;;;;5003713;28;20046;-65
2021/12/28 13:41:08;;;;;;;7.22;1.85;;;;;;;;;;5004210;28;20054;-66
2021/12/28 13:43:38;;;;;;;5.25;1.73;;;;;;;;;;4968253;28;20059;-67
2021/12/28 13:46:10;;;;;;;4.90;1.73;;;;;;;;;;4969676;28;20053;-62
2021/12/28 13:48:49;;;;;;;6.40;1.83;;;;;;;;;;4982058;28;20089;-67
2021/12/28 13:51:24;;;;;;;3.50;1.30;;;;;;;;;;4965794;28;20059;-66
2021/12/28 13:53:59;;;;;;;8.15;2.20;;;;;;;;;;4968090;28;20637;-67
2021/12/28 13:56:38;;;;;;;5.07;1.90;;;;;;;;;;4956567;28;20483;-66
2021/12/28 13:59:13;;;;;;;2.78;1.33;;;;;;;;;;4950634;29;20059;-65
2021/12/28 14:01:45;;;;;;;2.67;1.40;;;;;;;;;;4923945;29;20063;-66
2021/12/28 14:04:20;;;;;;;5.80;1.48;;;;;;;;;;4909055;29;20048;-66
2021/12/28 14:06:55;;;;;;;6.63;2.17;;;;;;;;;;4916754;29;20575;-66
2021/12/28 14:09:29;;;;;;;6.45;2.47;;;;;;;;;;4923752;29;20425;-71
2021/12/28 14:12:00;;;;;;;4.57;1.83;;;;;;;;;;4909579;29;20058;-67
2021/12/28 14:14:35;;;;;;;3.38;1.15;;;;;;;;;;4931524;29;20066;-66
2021/12/28 14:17:14;;;;;;;4.43;1.25;;;;;;;;;;4929815;29;20051;-67
2021/12/28 14:19:55;;;;;;;6.00;1.00;;;;;;;;;;4964116;28;20062;-67
2021/12/28 14:22:27;;;;;;;4.00;1.33;;;;;;;;;;4958217;28;20050;-66
2021/12/28 14:24:58;;;;;;;2.47;1.20;;;;;;;;;;4936921;29;20066;-69
2021/12/28 14:27:33;;;;;;;4.43;1.02;;;;;;;;;;4967235;28;20066;-68
2021/12/28 14:30:11;;;;;;;2.70;1.15;;;;;;;;;;4969440;28;20055;-67
2021/12/28 14:32:46;;;;;;;2.95;1.00;;;;;;;;;;4970042;28;20070;-66
2021/12/28 14:35:23;;;;;;;3.53;1.13;;;;;;;;;;4998596;28;20065;-67
2021/12/28 14:37:55;;;;;;;2.58;1.10;;;;;;;;;;4996966;28;20069;-64
2021/12/28 14:40:28;;;;;;;;;;;;;;;;;;5026537;28;20057;-65
2021/12/28 14:43:10;;;;;;;4.20;1.27;;;;;;;;;;5029245;28;19921;-65
2021/12/28 14:45:41;;;;;;;3.08;0.85;;;;;;;;;;5029397;28;20068;-66
2021/12/28 14:48:19;;;;;;;4.30;1.05;;;;;;;;;;4989563;28;20057;-65
2021/12/28 14:50:50;;;;;;;4.18;0.98;;;;;;;;;;4989854;28;20739;-65
2021/12/28 14:53:21;;;;;;;2.00;0.93;;;;;;;;;;4989698;28;20054;-65
2021/12/28 14:55:57;;;;;;;3.30;0.90;;;;;;;;;;4973922;28;20054;-66
2021/12/28 14:58:29;;;;;;;2.75;0.95;;;;;;;;;;4984931;28;20131;-68
2021/12/28 15:01:03;;;;;;;3.58;1.00;;;;;;;;;;5011314;28;20053;-69
2021/12/28 15:03:35;;;;;;;4.13;1.38;;;;;;;;;;5010164;28;20461;-64
2021/12/28 15:06:06;;;;;;;1.33;0.75;;;;;;;;;;5006435;28;20521;-67